sensor_id;sensor_type;location;lat;lon;timestamp;P1;durP1;ratioP1;P2;durP2;ratioP2
18857;SDS011;9558;50.178;8.370;2022-10-26T00:00:51;15.52;;;1.73;;
18857;SDS011;9558;50.178;8.370;2022-10-26T00:03:18;1.65;;;0.65;;
18857;SDS011;9558;50.178;8.370;2022-10-26T00:05:44;1.50;;;1.05;;
18857;SDS011;9558;50.178;8.370;2022-10-26T00:08:12;2.13;;;0.80;;
18857;SDS011;9558;50.178;8.370;2022-10-26T00:10:39;1.17;;;0.60;;
18857;SDS011;9558;50.178;8.370;2022-10-26T00:13:07;1.35;;;0.55;;
18857;SDS011;9558;50.178;8.370;2022-10-26T00:15:38;0.45;;;0.45;;
18857;SDS011;9558;50.178;8.370;2022-10-26T00:18:05;1.27;;;0.65;;
18857;SDS011;9558;50.178;8.370;2022-10-26T00:20:31;2.28;;;0.52;;
18857;SDS011;9558;50.178;8.370;2022-10-26T00:22:58;0.85;;;0.70;;
18857;SDS011;9558;50.178;8.370;2022-10-26T00:25:26;1.02;;;0.52;;
18857;SDS011;9558;50.178;8.370;2022-10-26T00:27:52;2.05;;;0.70;;
18857;SDS011;9558;50.178;8.370;2022-10-26T00:30:18;1.35;;;0.70;;
18857;SDS011;9558;50.178;8.370;2022-10-26T00:32:45;4.75;;;0.70;;
18857;SDS011;9558;50.178;8.370;2022-10-26T00:35:11;0.22;;;0.22;;
18857;SDS011;9558;50.178;8.370;2022-10-26T00:37:38;1.63;;;0.60;;
18857;SDS011;9558;50.178;8.370;2022-10-26T00:40:05;3.03;;;0.50;;
18857;SDS011;9558;50.178;8.370;2022-10-26T00:42:33;0.50;;;0.40;;
18857;SDS011;9558;50.178;8.370;2022-10-26T00:45:01;0.50;;;0.38;;
18857;SDS011;9558;50.178;8.370;2022-10-26T00:47:34;0.77;;;0.65;;
18857;SDS011;9558;50.178;8.370;2022-10-26T00:50:06;1.10;;;0.73;;
18857;SDS011;9558;50.178;8.370;2022-10-26T00:52:35;0.43;;;0.43;;
18857;SDS011;9558;50.178;8.370;2022-10-26T00:55:03;11.32;;;0.88;;
18857;SDS011;9558;50.178;8.370;2022-10-26T00:57:31;0.50;;;0.38;;
18857;SDS011;9558;50.178;8.370;2022-10-26T00:59:59;1.02;;;0.60;;
18857;SDS011;9558;50.178;8.370;2022-10-26T01:02:26;0.93;;;0.70;;
18857;SDS011;9558;50.178;8.370;2022-10-26T01:04:52;2.65;;;0.80;;
18857;SDS011;9558;50.178;8.370;2022-10-26T01:07:20;1.20;;;0.60;;
18857;SDS011;9558;50.178;8.370;2022-10-26T01:09:47;0.68;;;0.52;;
18857;SDS011;9558;50.178;8.370;2022-10-26T01:12:13;0.55;;;0.55;;
18857;SDS011;9558;50.178;8.370;2022-10-26T01:14:40;1.05;;;0.60;;
18857;SDS011;9558;50.178;8.370;2022-10-26T01:17:10;0.68;;;0.60;;
18857;SDS011;9558;50.178;8.370;2022-10-26T01:23:03;1.63;;;0.60;;
18857;SDS011;9558;50.178;8.370;2022-10-26T01:25:41;4.53;;;0.60;;
18857;SDS011;9558;50.178;8.370;2022-10-26T01:28:30;1.33;;;0.57;;
18857;SDS011;9558;50.178;8.370;2022-10-26T01:31:08;0.40;;;0.40;;
18857;SDS011;9558;50.178;8.370;2022-10-26T01:33:42;0.40;;;0.40;;
18857;SDS011;9558;50.178;8.370;2022-10-26T01:36:11;8.07;;;0.70;;
18857;SDS011;9558;50.178;8.370;2022-10-26T01:38:46;1.20;;;0.80;;
18857;SDS011;9558;50.178;8.370;2022-10-26T01:41:22;1.35;;;0.80;;
18857;SDS011;9558;50.178;8.370;2022-10-26T01:43:54;0.63;;;0.57;;
18857;SDS011;9558;50.178;8.370;2022-10-26T01:46:27;0.43;;;0.43;;
18857;SDS011;9558;50.178;8.370;2022-10-26T01:49:00;8.60;;;0.50;;
18857;SDS011;9558;50.178;8.370;2022-10-26T01:51:31;0.88;;;0.60;;
18857;SDS011;9558;50.178;8.370;2022-10-26T01:53:59;3.83;;;0.52;;
18857;SDS011;9558;50.178;8.370;2022-10-26T01:56:27;0.52;;;0.30;;
18857;SDS011;9558;50.178;8.370;2022-10-26T01:59:17;2.00;;;0.63;;
18857;SDS011;9558;50.178;8.370;2022-10-26T02:05:09;0.60;;;0.60;;
18857;SDS011;9558;50.178;8.370;2022-10-26T02:07:48;0.93;;;0.88;;
18857;SDS011;9558;50.178;8.370;2022-10-26T02:10:28;1.38;;;0.85;;
18857;SDS011;9558;50.178;8.370;2022-10-26T02:13:02;1.67;;;0.75;;
18857;SDS011;9558;50.178;8.370;2022-10-26T02:15:36;0.68;;;0.50;;
18857;SDS011;9558;50.178;8.370;2022-10-26T02:20:43;0.75;;;0.50;;
18857;SDS011;9558;50.178;8.370;2022-10-26T02:23:14;0.85;;;0.85;;
18857;SDS011;9558;50.178;8.370;2022-10-26T02:25:43;2.55;;;1.05;;
18857;SDS011;9558;50.178;8.370;2022-10-26T02:28:13;0.93;;;0.60;;
18857;SDS011;9558;50.178;8.370;2022-10-26T02:30:51;2.00;;;1.00;;
18857;SDS011;9558;50.178;8.370;2022-10-26T02:33:22;0.60;;;0.30;;
18857;SDS011;9558;50.178;8.370;2022-10-26T02:35:51;1.75;;;0.82;;
18857;SDS011;9558;50.178;8.370;2022-10-26T02:38:20;0.93;;;0.57;;
18857;SDS011;9558;50.178;8.370;2022-10-26T02:40:49;0.45;;;0.40;;
18857;SDS011;9558;50.178;8.370;2022-10-26T02:43:17;2.67;;;0.50;;
18857;SDS011;9558;50.178;8.370;2022-10-26T02:45:48;0.50;;;0.50;;
18857;SDS011;9558;50.178;8.370;2022-10-26T02:48:18;0.90;;;0.70;;
18857;SDS011;9558;50.178;8.370;2022-10-26T02:50:49;2.22;;;0.70;;
18857;SDS011;9558;50.178;8.370;2022-10-26T02:53:23;1.08;;;0.57;;
18857;SDS011;9558;50.178;8.370;2022-10-26T02:55:53;3.47;;;0.88;;
18857;SDS011;9558;50.178;8.370;2022-10-26T02:58:22;0.43;;;0.43;;
18857;SDS011;9558;50.178;8.370;2022-10-26T03:00:53;0.85;;;0.73;;
18857;SDS011;9558;50.178;8.370;2022-10-26T03:03:20;2.72;;;0.65;;
18857;SDS011;9558;50.178;8.370;2022-10-26T03:05:49;1.38;;;0.80;;
18857;SDS011;9558;50.178;8.370;2022-10-26T03:08:16;0.75;;;0.50;;
18857;SDS011;9558;50.178;8.370;2022-10-26T03:10:43;1.58;;;0.70;;
18857;SDS011;9558;50.178;8.370;2022-10-26T03:13:11;0.70;;;0.40;;
18857;SDS011;9558;50.178;8.370;2022-10-26T03:15:38;1.08;;;0.73;;
18857;SDS011;9558;50.178;8.370;2022-10-26T03:18:05;1.27;;;0.70;;
18857;SDS011;9558;50.178;8.370;2022-10-26T03:20:32;0.50;;;0.50;;
18857;SDS011;9558;50.178;8.370;2022-10-26T03:23:00;1.00;;;0.80;;
18857;SDS011;9558;50.178;8.370;2022-10-26T03:25:26;1.20;;;0.50;;
18857;SDS011;9558;50.178;8.370;2022-10-26T03:27:56;3.42;;;0.88;;
18857;SDS011;9558;50.178;8.370;2022-10-26T03:30:24;1.10;;;1.00;;
18857;SDS011;9558;50.178;8.370;2022-10-26T03:32:51;0.80;;;0.80;;
18857;SDS011;9558;50.178;8.370;2022-10-26T03:35:17;3.30;;;0.70;;
18857;SDS011;9558;50.178;8.370;2022-10-26T03:37:44;0.85;;;0.55;;
18857;SDS011;9558;50.178;8.370;2022-10-26T03:40:12;3.83;;;0.80;;
18857;SDS011;9558;50.178;8.370;2022-10-26T03:42:39;0.73;;;0.60;;
18857;SDS011;9558;50.178;8.370;2022-10-26T03:45:06;2.13;;;1.23;;
18857;SDS011;9558;50.178;8.370;2022-10-26T03:47:33;8.20;;;2.08;;
18857;SDS011;9558;50.178;8.370;2022-10-26T03:50:05;1.25;;;1.02;;
18857;SDS011;9558;50.178;8.370;2022-10-26T03:52:32;1.05;;;0.68;;
18857;SDS011;9558;50.178;8.370;2022-10-26T03:54:58;6.85;;;0.80;;
18857;SDS011;9558;50.178;8.370;2022-10-26T03:57:26;0.80;;;0.65;;
18857;SDS011;9558;50.178;8.370;2022-10-26T03:59:53;2.17;;;0.82;;
18857;SDS011;9558;50.178;8.370;2022-10-26T04:02:19;1.05;;;0.93;;
18857;SDS011;9558;50.178;8.370;2022-10-26T04:04:46;1.38;;;1.05;;
18857;SDS011;9558;50.178;8.370;2022-10-26T04:07:12;1.23;;;1.13;;
18857;SDS011;9558;50.178;8.370;2022-10-26T04:09:38;1.05;;;0.90;;
18857;SDS011;9558;50.178;8.370;2022-10-26T04:12:05;2.20;;;0.65;;
18857;SDS011;9558;50.178;8.370;2022-10-26T04:14:33;0.50;;;0.47;;
18857;SDS011;9558;50.178;8.370;2022-10-26T04:16:59;0.88;;;0.70;;
18857;SDS011;9558;50.178;8.370;2022-10-26T04:19:26;0.68;;;0.52;;
18857;SDS011;9558;50.178;8.370;2022-10-26T04:21:52;0.50;;;0.50;;
18857;SDS011;9558;50.178;8.370;2022-10-26T04:24:19;4.28;;;0.82;;
18857;SDS011;9558;50.178;8.370;2022-10-26T04:26:45;3.05;;;0.90;;
18857;SDS011;9558;50.178;8.370;2022-10-26T04:29:12;1.75;;;0.70;;
18857;SDS011;9558;50.178;8.370;2022-10-26T04:31:40;0.63;;;0.50;;
18857;SDS011;9558;50.178;8.370;2022-10-26T04:34:07;1.55;;;0.70;;
18857;SDS011;9558;50.178;8.370;2022-10-26T04:36:33;0.75;;;0.60;;
18857;SDS011;9558;50.178;8.370;2022-10-26T04:39:00;0.75;;;0.70;;
18857;SDS011;9558;50.178;8.370;2022-10-26T04:41:26;1.20;;;0.60;;
18857;SDS011;9558;50.178;8.370;2022-10-26T04:43:53;0.55;;;0.50;;
18857;SDS011;9558;50.178;8.370;2022-10-26T04:46:19;4.10;;;0.82;;
18857;SDS011;9558;50.178;8.370;2022-10-26T04:48:47;0.77;;;0.63;;
18857;SDS011;9558;50.178;8.370;2022-10-26T04:51:14;0.40;;;0.40;;
18857;SDS011;9558;50.178;8.370;2022-10-26T04:53:40;0.73;;;0.60;;
18857;SDS011;9558;50.178;8.370;2022-10-26T04:56:07;3.17;;;0.80;;
18857;SDS011;9558;50.178;8.370;2022-10-26T04:58:34;0.45;;;0.45;;
18857;SDS011;9558;50.178;8.370;2022-10-26T05:01:00;0.60;;;0.60;;
18857;SDS011;9558;50.178;8.370;2022-10-26T05:03:27;0.75;;;0.75;;
18857;SDS011;9558;50.178;8.370;2022-10-26T05:06:03;1.17;;;0.77;;
18857;SDS011;9558;50.178;8.370;2022-10-26T05:08:30;1.45;;;0.80;;
18857;SDS011;9558;50.178;8.370;2022-10-26T05:10:56;4.38;;;0.98;;
18857;SDS011;9558;50.178;8.370;2022-10-26T05:13:23;0.93;;;0.47;;
18857;SDS011;9558;50.178;8.370;2022-10-26T05:15:51;2.70;;;0.93;;
18857;SDS011;9558;50.178;8.370;2022-10-26T05:18:18;0.55;;;0.55;;
18857;SDS011;9558;50.178;8.370;2022-10-26T05:20:45;0.47;;;0.35;;
18857;SDS011;9558;50.178;8.370;2022-10-26T05:23:15;6.68;;;1.20;;
18857;SDS011;9558;50.178;8.370;2022-10-26T05:25:43;0.60;;;0.60;;
18857;SDS011;9558;50.178;8.370;2022-10-26T05:28:10;0.55;;;0.55;;
18857;SDS011;9558;50.178;8.370;2022-10-26T05:30:38;2.40;;;1.17;;
18857;SDS011;9558;50.178;8.370;2022-10-26T05:33:04;1.95;;;0.80;;
18857;SDS011;9558;50.178;8.370;2022-10-26T05:35:31;1.77;;;1.10;;
18857;SDS011;9558;50.178;8.370;2022-10-26T05:37:58;2.88;;;1.23;;
18857;SDS011;9558;50.178;8.370;2022-10-26T05:42:58;0.80;;;0.80;;
18857;SDS011;9558;50.178;8.370;2022-10-26T05:45:25;0.73;;;0.65;;
18857;SDS011;9558;50.178;8.370;2022-10-26T05:47:52;4.72;;;1.23;;
18857;SDS011;9558;50.178;8.370;2022-10-26T05:50:18;1.42;;;0.93;;
18857;SDS011;9558;50.178;8.370;2022-10-26T05:52:45;1.30;;;1.20;;
18857;SDS011;9558;50.178;8.370;2022-10-26T05:55:13;1.20;;;0.85;;
18857;SDS011;9558;50.178;8.370;2022-10-26T05:57:43;0.63;;;0.63;;
18857;SDS011;9558;50.178;8.370;2022-10-26T06:00:14;0.60;;;0.60;;
18857;SDS011;9558;50.178;8.370;2022-10-26T06:02:43;1.30;;;0.95;;
18857;SDS011;9558;50.178;8.370;2022-10-26T06:05:21;1.50;;;0.55;;
18857;SDS011;9558;50.178;8.370;2022-10-26T06:07:51;8.48;;;1.23;;
18857;SDS011;9558;50.178;8.370;2022-10-26T06:10:18;1.55;;;0.73;;
18857;SDS011;9558;50.178;8.370;2022-10-26T06:12:47;2.72;;;0.75;;
18857;SDS011;9558;50.178;8.370;2022-10-26T06:15:15;2.65;;;0.85;;
18857;SDS011;9558;50.178;8.370;2022-10-26T06:17:45;2.15;;;0.63;;
18857;SDS011;9558;50.178;8.370;2022-10-26T07:24:21;2.33;;;1.02;;
18857;SDS011;9558;50.178;8.370;2022-10-26T07:27:08;3.47;;;1.40;;
18857;SDS011;9558;50.178;8.370;2022-10-26T07:29:35;2.40;;;0.95;;
18857;SDS011;9558;50.178;8.370;2022-10-26T07:32:01;2.90;;;1.05;;
18857;SDS011;9558;50.178;8.370;2022-10-26T07:34:28;1.23;;;0.85;;
18857;SDS011;9558;50.178;8.370;2022-10-26T07:36:55;2.15;;;1.00;;
18857;SDS011;9558;50.178;8.370;2022-10-26T07:39:22;1.52;;;1.35;;
18857;SDS011;9558;50.178;8.370;2022-10-26T07:41:49;1.17;;;0.98;;
18857;SDS011;9558;50.178;8.370;2022-10-26T07:44:16;1.25;;;0.95;;
18857;SDS011;9558;50.178;8.370;2022-10-26T07:46:43;1.15;;;0.98;;
18857;SDS011;9558;50.178;8.370;2022-10-26T07:49:09;2.25;;;1.55;;
18857;SDS011;9558;50.178;8.370;2022-10-26T07:51:36;2.50;;;1.33;;
18857;SDS011;9558;50.178;8.370;2022-10-26T07:54:03;0.90;;;0.90;;
18857;SDS011;9558;50.178;8.370;2022-10-26T07:56:31;1.08;;;0.90;;
18857;SDS011;9558;50.178;8.370;2022-10-26T07:58:57;1.67;;;1.00;;
18857;SDS011;9558;50.178;8.370;2022-10-26T08:01:24;1.83;;;1.20;;
18857;SDS011;9558;50.178;8.370;2022-10-26T08:03:51;2.72;;;1.40;;
18857;SDS011;9558;50.178;8.370;2022-10-26T08:08:44;2.92;;;1.00;;
18857;SDS011;9558;50.178;8.370;2022-10-26T08:11:11;1.10;;;1.00;;
18857;SDS011;9558;50.178;8.370;2022-10-26T08:13:39;3.10;;;1.48;;
18857;SDS011;9558;50.178;8.370;2022-10-26T08:16:06;1.60;;;1.25;;
18857;SDS011;9558;50.178;8.370;2022-10-26T08:18:33;3.53;;;1.67;;
18857;SDS011;9558;50.178;8.370;2022-10-26T08:21:00;2.17;;;1.15;;
18857;SDS011;9558;50.178;8.370;2022-10-26T08:23:28;1.83;;;1.23;;
18857;SDS011;9558;50.178;8.370;2022-10-26T08:25:56;1.60;;;1.08;;
18857;SDS011;9558;50.178;8.370;2022-10-26T08:28:23;2.13;;;1.45;;
18857;SDS011;9558;50.178;8.370;2022-10-26T08:30:51;1.40;;;0.82;;
18857;SDS011;9558;50.178;8.370;2022-10-26T08:33:17;2.65;;;1.52;;
18857;SDS011;9558;50.178;8.370;2022-10-26T08:35:44;1.60;;;0.77;;
18857;SDS011;9558;50.178;8.370;2022-10-26T08:38:10;3.20;;;1.08;;
18857;SDS011;9558;50.178;8.370;2022-10-26T08:40:37;2.45;;;1.38;;
18857;SDS011;9558;50.178;8.370;2022-10-26T08:43:09;3.15;;;1.20;;
18857;SDS011;9558;50.178;8.370;2022-10-26T08:45:43;1.83;;;1.20;;
18857;SDS011;9558;50.178;8.370;2022-10-26T08:48:18;1.83;;;1.00;;
18857;SDS011;9558;50.178;8.370;2022-10-26T08:50:49;4.00;;;1.38;;
18857;SDS011;9558;50.178;8.370;2022-10-26T08:53:19;1.45;;;0.88;;
18857;SDS011;9558;50.178;8.370;2022-10-26T08:55:51;6.30;;;1.50;;
18857;SDS011;9558;50.178;8.370;2022-10-26T08:58:21;2.88;;;1.40;;
18857;SDS011;9558;50.178;8.370;2022-10-26T09:00:51;1.45;;;1.00;;
18857;SDS011;9558;50.178;8.370;2022-10-26T09:03:20;3.20;;;1.45;;
18857;SDS011;9558;50.178;8.370;2022-10-26T09:05:49;1.65;;;1.17;;
18857;SDS011;9558;50.178;8.370;2022-10-26T09:08:31;11.30;;;1.30;;
18857;SDS011;9558;50.178;8.370;2022-10-26T09:11:06;2.38;;;1.25;;
18857;SDS011;9558;50.178;8.370;2022-10-26T09:13:46;5.60;;;1.85;;
18857;SDS011;9558;50.178;8.370;2022-10-26T09:16:22;2.60;;;1.40;;
18857;SDS011;9558;50.178;8.370;2022-10-26T09:18:57;2.22;;;1.48;;
18857;SDS011;9558;50.178;8.370;2022-10-26T09:21:46;2.38;;;1.55;;
18857;SDS011;9558;50.178;8.370;2022-10-26T09:24:19;1.65;;;1.13;;
18857;SDS011;9558;50.178;8.370;2022-10-26T09:26:52;4.05;;;1.60;;
18857;SDS011;9558;50.178;8.370;2022-10-26T09:29:23;3.30;;;1.48;;
18857;SDS011;9558;50.178;8.370;2022-10-26T09:31:52;2.15;;;1.35;;
18857;SDS011;9558;50.178;8.370;2022-10-26T09:34:25;1.67;;;1.58;;
18857;SDS011;9558;50.178;8.370;2022-10-26T09:36:54;3.63;;;1.60;;
18857;SDS011;9558;50.178;8.370;2022-10-26T09:39:27;1.90;;;1.35;;
18857;SDS011;9558;50.178;8.370;2022-10-26T09:42:02;1.75;;;1.30;;
18857;SDS011;9558;50.178;8.370;2022-10-26T09:44:38;1.77;;;1.63;;
18857;SDS011;9558;50.178;8.370;2022-10-26T09:47:12;2.80;;;1.55;;
18857;SDS011;9558;50.178;8.370;2022-10-26T09:49:43;2.45;;;1.23;;
18857;SDS011;9558;50.178;8.370;2022-10-26T09:52:13;2.58;;;1.42;;
18857;SDS011;9558;50.178;8.370;2022-10-26T09:54:40;3.53;;;1.52;;
18857;SDS011;9558;50.178;8.370;2022-10-26T09:57:07;3.20;;;1.60;;
18857;SDS011;9558;50.178;8.370;2022-10-26T09:59:35;1.67;;;1.20;;
18857;SDS011;9558;50.178;8.370;2022-10-26T10:02:15;2.40;;;1.33;;
18857;SDS011;9558;50.178;8.370;2022-10-26T10:07:25;1.25;;;1.10;;
18857;SDS011;9558;50.178;8.370;2022-10-26T10:12:40;3.00;;;1.95;;
18857;SDS011;9558;50.178;8.370;2022-10-26T10:15:12;1.85;;;1.27;;
18857;SDS011;9558;50.178;8.370;2022-10-26T10:17:45;2.67;;;1.30;;
18857;SDS011;9558;50.178;8.370;2022-10-26T10:20:18;2.75;;;1.20;;
18857;SDS011;9558;50.178;8.370;2022-10-26T10:22:53;2.53;;;1.30;;
18857;SDS011;9558;50.178;8.370;2022-10-26T10:25:21;2.03;;;1.10;;
18857;SDS011;9558;50.178;8.370;2022-10-26T10:27:53;1.30;;;1.10;;
18857;SDS011;9558;50.178;8.370;2022-10-26T10:30:20;2.60;;;1.33;;
18857;SDS011;9558;50.178;8.370;2022-10-26T10:33:02;3.88;;;1.55;;
18857;SDS011;9558;50.178;8.370;2022-10-26T10:35:31;4.53;;;1.55;;
18857;SDS011;9558;50.178;8.370;2022-10-26T10:37:57;1.65;;;1.02;;
18857;SDS011;9558;50.178;8.370;2022-10-26T10:40:25;1.75;;;1.40;;
18857;SDS011;9558;50.178;8.370;2022-10-26T10:43:01;2.00;;;1.50;;
18857;SDS011;9558;50.178;8.370;2022-10-26T10:45:30;4.38;;;1.30;;
18857;SDS011;9558;50.178;8.370;2022-10-26T10:47:58;3.05;;;1.70;;
18857;SDS011;9558;50.178;8.370;2022-10-26T10:50:27;2.42;;;1.35;;
18857;SDS011;9558;50.178;8.370;2022-10-26T10:55:45;2.35;;;1.40;;
18857;SDS011;9558;50.178;8.370;2022-10-26T10:58:23;2.20;;;1.40;;
18857;SDS011;9558;50.178;8.370;2022-10-26T11:00:57;2.10;;;1.30;;
18857;SDS011;9558;50.178;8.370;2022-10-26T11:03:26;2.40;;;1.17;;
18857;SDS011;9558;50.178;8.370;2022-10-26T11:05:59;2.35;;;1.13;;
18857;SDS011;9558;50.178;8.370;2022-10-26T11:08:36;3.50;;;1.80;;
18857;SDS011;9558;50.178;8.370;2022-10-26T11:11:08;3.08;;;1.33;;
18857;SDS011;9558;50.178;8.370;2022-10-26T11:13:40;1.48;;;1.17;;
18857;SDS011;9558;50.178;8.370;2022-10-26T11:16:14;1.83;;;1.08;;
18857;SDS011;9558;50.178;8.370;2022-10-26T11:18:44;5.30;;;1.15;;
18857;SDS011;9558;50.178;8.370;2022-10-26T11:21:18;2.47;;;1.23;;
18857;SDS011;9558;50.178;8.370;2022-10-26T11:23:53;1.85;;;1.08;;
18857;SDS011;9558;50.178;8.370;2022-10-26T11:26:32;1.83;;;1.00;;
18857;SDS011;9558;50.178;8.370;2022-10-26T11:29:02;2.67;;;1.20;;
18857;SDS011;9558;50.178;8.370;2022-10-26T11:31:33;1.88;;;1.13;;
18857;SDS011;9558;50.178;8.370;2022-10-26T11:34:08;1.65;;;1.10;;
18857;SDS011;9558;50.178;8.370;2022-10-26T11:36:42;1.85;;;1.27;;
18857;SDS011;9558;50.178;8.370;2022-10-26T11:39:15;1.63;;;1.10;;
18857;SDS011;9558;50.178;8.370;2022-10-26T11:41:48;5.78;;;1.20;;
18857;SDS011;9558;50.178;8.370;2022-10-26T11:44:19;2.10;;;1.10;;
18857;SDS011;9558;50.178;8.370;2022-10-26T11:46:51;1.85;;;0.98;;
18857;SDS011;9558;50.178;8.370;2022-10-26T11:49:22;2.67;;;1.05;;
18857;SDS011;9558;50.178;8.370;2022-10-26T11:51:55;1.17;;;1.00;;
18857;SDS011;9558;50.178;8.370;2022-10-26T11:54:28;2.13;;;1.30;;
18857;SDS011;9558;50.178;8.370;2022-10-26T11:56:59;2.17;;;1.23;;
18857;SDS011;9558;50.178;8.370;2022-10-26T11:59:28;0.90;;;0.80;;
18857;SDS011;9558;50.178;8.370;2022-10-26T12:01:57;0.80;;;0.80;;
18857;SDS011;9558;50.178;8.370;2022-10-26T12:04:28;5.30;;;1.30;;
18857;SDS011;9558;50.178;8.370;2022-10-26T12:06:58;2.05;;;1.10;;
18857;SDS011;9558;50.178;8.370;2022-10-26T12:09:31;2.35;;;1.05;;
18857;SDS011;9558;50.178;8.370;2022-10-26T12:12:03;1.15;;;0.90;;
18857;SDS011;9558;50.178;8.370;2022-10-26T12:14:35;3.33;;;1.15;;
18857;SDS011;9558;50.178;8.370;2022-10-26T12:17:08;1.45;;;0.75;;
18857;SDS011;9558;50.178;8.370;2022-10-26T12:19:41;0.70;;;0.70;;
18857;SDS011;9558;50.178;8.370;2022-10-26T12:22:12;0.85;;;0.65;;
18857;SDS011;9558;50.178;8.370;2022-10-26T12:24:43;2.17;;;0.60;;
18857;SDS011;9558;50.178;8.370;2022-10-26T12:27:28;1.50;;;0.90;;
18857;SDS011;9558;50.178;8.370;2022-10-26T12:30:13;3.22;;;0.90;;
18857;SDS011;9558;50.178;8.370;2022-10-26T12:32:49;1.17;;;0.80;;
18857;SDS011;9558;50.178;8.370;2022-10-26T12:35:27;2.15;;;0.90;;
18857;SDS011;9558;50.178;8.370;2022-10-26T12:38:02;0.93;;;0.70;;
18857;SDS011;9558;50.178;8.370;2022-10-26T12:41:23;1.95;;;1.00;;
18857;SDS011;9558;50.178;8.370;2022-10-26T12:43:54;2.22;;;1.00;;
18857;SDS011;9558;50.178;8.370;2022-10-26T12:52:06;1.38;;;1.00;;
18857;SDS011;9558;50.178;8.370;2022-10-26T12:54:44;2.80;;;0.90;;
18857;SDS011;9558;50.178;8.370;2022-10-26T12:57:25;2.20;;;0.88;;
18857;SDS011;9558;50.178;8.370;2022-10-26T12:59:57;0.60;;;0.60;;
18857;SDS011;9558;50.178;8.370;2022-10-26T13:02:38;3.17;;;0.88;;
18857;SDS011;9558;50.178;8.370;2022-10-26T13:05:36;0.98;;;0.85;;
18857;SDS011;9558;50.178;8.370;2022-10-26T13:08:23;2.30;;;1.00;;
18857;SDS011;9558;50.178;8.370;2022-10-26T13:10:59;2.05;;;1.08;;
18857;SDS011;9558;50.178;8.370;2022-10-26T13:13:30;2.00;;;1.15;;
18857;SDS011;9558;50.178;8.370;2022-10-26T13:15:58;2.25;;;1.10;;
18857;SDS011;9558;50.178;8.370;2022-10-26T13:18:26;0.77;;;0.70;;
18857;SDS011;9558;50.178;8.370;2022-10-26T13:20:57;2.30;;;0.90;;
18857;SDS011;9558;50.178;8.370;2022-10-26T13:23:31;2.38;;;1.10;;
18857;SDS011;9558;50.178;8.370;2022-10-26T13:26:04;3.67;;;1.10;;
18857;SDS011;9558;50.178;8.370;2022-10-26T13:28:43;3.80;;;1.05;;
18857;SDS011;9558;50.178;8.370;2022-10-26T13:34:21;1.75;;;1.10;;
18857;SDS011;9558;50.178;8.370;2022-10-26T13:36:50;0.70;;;0.70;;
18857;SDS011;9558;50.178;8.370;2022-10-26T13:39:23;0.75;;;0.57;;
18857;SDS011;9558;50.178;8.370;2022-10-26T13:41:54;1.73;;;0.80;;
18857;SDS011;9558;50.178;8.370;2022-10-26T13:44:27;1.90;;;1.00;;
18857;SDS011;9558;50.178;8.370;2022-10-26T13:46:57;2.40;;;1.08;;
18857;SDS011;9558;50.178;8.370;2022-10-26T13:49:28;1.05;;;0.60;;
18857;SDS011;9558;50.178;8.370;2022-10-26T13:51:59;1.08;;;0.82;;
18857;SDS011;9558;50.178;8.370;2022-10-26T13:54:29;2.60;;;1.00;;
18857;SDS011;9558;50.178;8.370;2022-10-26T13:57:03;1.48;;;1.00;;
18857;SDS011;9558;50.178;8.370;2022-10-26T13:59:40;1.27;;;0.85;;
18857;SDS011;9558;50.178;8.370;2022-10-26T14:02:14;1.85;;;1.00;;
18857;SDS011;9558;50.178;8.370;2022-10-26T14:04:47;2.25;;;1.15;;
18857;SDS011;9558;50.178;8.370;2022-10-26T14:07:18;0.95;;;0.82;;
18857;SDS011;9558;50.178;8.370;2022-10-26T14:09:49;1.30;;;1.00;;
18857;SDS011;9558;50.178;8.370;2022-10-26T14:12:17;2.47;;;1.08;;
18857;SDS011;9558;50.178;8.370;2022-10-26T14:14:45;4.82;;;1.00;;
18857;SDS011;9558;50.178;8.370;2022-10-26T14:17:15;2.53;;;1.40;;
18857;SDS011;9558;50.178;8.370;2022-10-26T14:19:45;2.60;;;1.35;;
18857;SDS011;9558;50.178;8.370;2022-10-26T14:22:15;4.68;;;1.05;;
18857;SDS011;9558;50.178;8.370;2022-10-26T14:24:49;1.92;;;0.90;;
18857;SDS011;9558;50.178;8.370;2022-10-26T14:27:17;2.30;;;0.90;;
18857;SDS011;9558;50.178;8.370;2022-10-26T14:29:47;1.77;;;0.73;;
18857;SDS011;9558;50.178;8.370;2022-10-26T14:32:25;1.10;;;0.80;;
18857;SDS011;9558;50.178;8.370;2022-10-26T14:34:53;1.33;;;0.85;;
18857;SDS011;9558;50.178;8.370;2022-10-26T14:37:24;3.72;;;0.80;;
18857;SDS011;9558;50.178;8.370;2022-10-26T14:40:00;2.17;;;1.20;;
18857;SDS011;9558;50.178;8.370;2022-10-26T14:42:28;6.60;;;1.13;;
18857;SDS011;9558;50.178;8.370;2022-10-26T14:44:59;0.85;;;0.68;;
18857;SDS011;9558;50.178;8.370;2022-10-26T14:47:27;0.93;;;0.80;;
18857;SDS011;9558;50.178;8.370;2022-10-26T14:49:55;5.00;;;0.93;;
18857;SDS011;9558;50.178;8.370;2022-10-26T14:52:23;2.28;;;1.02;;
18857;SDS011;9558;50.178;8.370;2022-10-26T14:54:59;1.27;;;0.95;;
18857;SDS011;9558;50.178;8.370;2022-10-26T14:57:28;2.35;;;0.80;;
18857;SDS011;9558;50.178;8.370;2022-10-26T15:00:03;1.33;;;0.88;;
18857;SDS011;9558;50.178;8.370;2022-10-26T15:02:39;1.30;;;0.90;;
18857;SDS011;9558;50.178;8.370;2022-10-26T15:05:16;2.38;;;1.20;;
18857;SDS011;9558;50.178;8.370;2022-10-26T15:07:45;4.72;;;0.90;;
18857;SDS011;9558;50.178;8.370;2022-10-26T15:13:13;1.42;;;1.02;;
18857;SDS011;9558;50.178;8.370;2022-10-26T15:15:48;1.08;;;0.80;;
18857;SDS011;9558;50.178;8.370;2022-10-26T15:18:17;0.95;;;0.77;;
18857;SDS011;9558;50.178;8.370;2022-10-26T15:20:46;4.47;;;1.70;;
18857;SDS011;9558;50.178;8.370;2022-10-26T15:23:15;2.78;;;1.73;;
18857;SDS011;9558;50.178;8.370;2022-10-26T15:25:48;8.95;;;3.38;;
18857;SDS011;9558;50.178;8.370;2022-10-26T15:28:20;8.10;;;3.40;;
18857;SDS011;9558;50.178;8.370;2022-10-26T15:31:03;3.75;;;2.22;;
18857;SDS011;9558;50.178;8.370;2022-10-26T15:33:32;1.90;;;1.27;;
18857;SDS011;9558;50.178;8.370;2022-10-26T15:36:12;2.67;;;1.35;;
18857;SDS011;9558;50.178;8.370;2022-10-26T15:38:40;1.55;;;1.10;;
18857;SDS011;9558;50.178;8.370;2022-10-26T15:41:12;2.08;;;1.33;;
18857;SDS011;9558;50.178;8.370;2022-10-26T15:43:41;3.47;;;0.95;;
18857;SDS011;9558;50.178;8.370;2022-10-26T15:46:09;3.78;;;1.40;;
18857;SDS011;9558;50.178;8.370;2022-10-26T15:48:36;3.03;;;1.10;;
18857;SDS011;9558;50.178;8.370;2022-10-26T15:51:04;1.10;;;0.98;;
18857;SDS011;9558;50.178;8.370;2022-10-26T15:53:31;1.40;;;0.90;;
18857;SDS011;9558;50.178;8.370;2022-10-26T15:55:58;6.88;;;1.27;;
18857;SDS011;9558;50.178;8.370;2022-10-26T15:58:25;1.52;;;0.95;;
18857;SDS011;9558;50.178;8.370;2022-10-26T16:00:54;2.17;;;1.05;;
18857;SDS011;9558;50.178;8.370;2022-10-26T16:03:24;5.00;;;1.30;;
18857;SDS011;9558;50.178;8.370;2022-10-26T16:05:52;1.08;;;0.82;;
18857;SDS011;9558;50.178;8.370;2022-10-26T16:08:22;3.55;;;1.45;;
18857;SDS011;9558;50.178;8.370;2022-10-26T16:10:49;2.50;;;1.05;;
18857;SDS011;9558;50.178;8.370;2022-10-26T16:13:15;1.92;;;1.08;;
18857;SDS011;9558;50.178;8.370;2022-10-26T16:15:42;6.18;;;1.20;;
18857;SDS011;9558;50.178;8.370;2022-10-26T16:20:37;4.32;;;1.15;;
18857;SDS011;9558;50.178;8.370;2022-10-26T16:23:03;1.55;;;1.15;;
18857;SDS011;9558;50.178;8.370;2022-10-26T16:25:31;2.55;;;1.60;;
18857;SDS011;9558;50.178;8.370;2022-10-26T16:27:59;2.85;;;1.95;;
18857;SDS011;9558;50.178;8.370;2022-10-26T16:30:27;3.13;;;1.40;;
18857;SDS011;9558;50.178;8.370;2022-10-26T16:32:55;1.67;;;1.00;;
18857;SDS011;9558;50.178;8.370;2022-10-26T16:35:21;3.75;;;1.67;;
18857;SDS011;9558;50.178;8.370;2022-10-26T16:37:49;1.35;;;1.10;;
18857;SDS011;9558;50.178;8.370;2022-10-26T16:40:16;1.20;;;1.00;;
18857;SDS011;9558;50.178;8.370;2022-10-26T16:42:42;1.58;;;1.00;;
18857;SDS011;9558;50.178;8.370;2022-10-26T16:45:09;2.88;;;0.90;;
18857;SDS011;9558;50.178;8.370;2022-10-26T16:47:36;1.40;;;0.88;;
18857;SDS011;9558;50.178;8.370;2022-10-26T16:50:04;3.25;;;1.10;;
18857;SDS011;9558;50.178;8.370;2022-10-26T16:52:32;1.35;;;0.80;;
18857;SDS011;9558;50.178;8.370;2022-10-26T16:55:01;1.45;;;0.90;;
18857;SDS011;9558;50.178;8.370;2022-10-26T16:57:28;4.15;;;1.20;;
18857;SDS011;9558;50.178;8.370;2022-10-26T16:59:54;1.92;;;1.02;;